Home > Products > Valid Products > TAF

000
FTUS44 KHUN 041908 AAA
TAFMSL
TAF AMD
KMSL 041908Z 0419/0518 21012G20KT P6SM -RA OVC030
     FM042100 32014G22KT 5SM -RA OVC015
     FM042300 35015G25KT 5SM RA BR OVC009
     FM050900 35015G25KT 5SM FZRA BR OVC009
     FM051400 35012G22KT 5SM -PLSN OVC009=



000
FTUS44 KHUN 041908 AAA
TAFHSV
TAF AMD
KHSV 041908Z 0419/0518 22015G20KT P6SM VCSH SCT009 OVC030
     FM042200 31012G20KT P6SM -RA OVC012
     FM050200 33012G23KT 5SM RA BR OVC009
     FM051100 35015G25KT 5SM FZRA BR OVC009
     FM051600 35013G22KT 5SM -PLSN OVC009=



000
FTUS44 KHUN 041724
TAFMSL
TAF
KMSL 041724Z 0418/0518 21014G22KT P6SM -RA SCT009 BKN015
     FM041900 30015G20KT P6SM -RA OVC012
     FM042300 35015G25KT 5SM RA BR OVC009
     FM050900 35015G25KT 5SM FZRA BR OVC009
     FM051400 35012G22KT 5SM -PLSN OVC009=



000
FTUS44 KHUN 041724
TAFHSV
TAF
KHSV 041724Z 0418/0518 22015G20KT P6SM VCSH SCT009 BKN015
     FM042200 31012G20KT P6SM -RA OVC012
     FM050200 33012G23KT 5SM RA BR OVC009
     FM051100 35015G25KT 5SM FZRA BR OVC009
     FM051600 35013G22KT 5SM -PLSN OVC009=



000
FTUS44 KHUN 041724
TAFHSV
TAF
KHSV 041724Z 0418/0518 22015G20KT P6SM VCSH SCT009 BKN015
     FM042200 31012G20KT P6SM -RA OVC012
     FM050200 33012G23KT 5SM RA BR OVC009
     FM051100 35015G25KT 5SM FZRA BR OVC009
     FM051600 35013G22KT 5SM -PLSN OVC009=



000
FTUS44 KHUN 041724
TAFMSL
TAF
KMSL 041724Z 0418/0518 21014G22KT P6SM -RA SCT009 BKN015
     FM041900 30015G20KT P6SM -RA OVC012
     FM042300 35015G25KT 5SM RA BR OVC009
     FM050900 35015G25KT 5SM FZRA BR OVC009
     FM051400 35012G22KT 5SM -PLSN OVC009=



000
FTUS44 KHUN 041724
TAFMSL
TAF
KMSL 041724Z 0418/0518 21014G22KT P6SM -RA SCT009 BKN015
     FM041900 30015G20KT P6SM -RA OVC012
     FM042300 35015G25KT 5SM RA BR OVC009
     FM050900 35015G25KT 5SM FZRA BR OVC009
     FM051400 35012G22KT 5SM -PLSN OVC009=



000
FTUS44 KHUN 041724
TAFHSV
TAF
KHSV 041724Z 0418/0518 22015G20KT P6SM VCSH SCT009 BKN015
     FM042200 31012G20KT P6SM -RA OVC012
     FM050200 33012G23KT 5SM RA BR OVC009
     FM051100 35015G25KT 5SM FZRA BR OVC009
     FM051600 35013G22KT 5SM -PLSN OVC009=



000
FTUS44 KHUN 041724
TAFHSV
TAF
KHSV 041724Z 0418/0518 22015G20KT P6SM VCSH SCT009 BKN015
     FM042200 31012G20KT P6SM -RA OVC012
     FM050200 33012G23KT 5SM RA BR OVC009
     FM051100 35015G25KT 5SM FZRA BR OVC009
     FM051600 35013G22KT 5SM -PLSN OVC009=



000
FTUS44 KHUN 041724
TAFMSL
TAF
KMSL 041724Z 0418/0518 21014G22KT P6SM -RA SCT009 BKN015
     FM041900 30015G20KT P6SM -RA OVC012
     FM042300 35015G25KT 5SM RA BR OVC009
     FM050900 35015G25KT 5SM FZRA BR OVC009
     FM051400 35012G22KT 5SM -PLSN OVC009=



000
FTUS44 KHUN 041559 AAA
TAFHSV
TAF AMD
KHSV 041559Z 0416/0512 20015G23KT P6SM VCSH SCT009 BKN015
     FM042100 27015G20KT P6SM VCSH OVC009
      TEMPO 0421/0423 3SM -TSRA BR OVC011CB
     FM050000 33012G23KT 5SM RA BR OVC009
     FM051100 35015G25KT 5SM FZRA BR OVC009=



000
FTUS44 KHUN 041559 AAA
TAFMSL
TAF AMD
KMSL 041559Z 0416/0512 21014G22KT P6SM VCSH SCT009 BKN018
     FM041900 30015G20KT P6SM VCSH OVC009
      TEMPO 0419/0421 3SM -TSRA BR OVC011CB
     FM042200 36015G25KT 5SM RA BR OVC009
     FM050900 35015G25KT 5SM FZRA BR OVC009=



000
FTUS44 KHUN 041559 AAA
TAFHSV
TAF AMD
KHSV 041559Z 0416/0512 20015G23KT P6SM VCSH SCT009 BKN015
     FM042100 27015G20KT P6SM VCSH OVC009
      TEMPO 0421/0423 3SM -TSRA BR OVC011CB
     FM050000 33012G23KT 5SM RA BR OVC009
     FM051100 35015G25KT 5SM FZRA BR OVC009=



000
FTUS44 KHUN 041559 AAA
TAFMSL
TAF AMD
KMSL 041559Z 0416/0512 21014G22KT P6SM VCSH SCT009 BKN018
     FM041900 30015G20KT P6SM VCSH OVC009
      TEMPO 0419/0421 3SM -TSRA BR OVC011CB
     FM042200 36015G25KT 5SM RA BR OVC009
     FM050900 35015G25KT 5SM FZRA BR OVC009=



000
FTUS44 KHUN 041131
TAFHSV
TAF
KHSV 041131Z 0412/0512 20010KT P6SM VCSH SCT009 BKN015
     FM041800 22012G18KT P6SM VCSH OVC015
     FM042100 27015G20KT P6SM VCSH OVC009
      TEMPO 0421/0423 3SM -TSRA BR OVC011CB
     FM050000 33012G23KT 5SM RA BR OVC009
     FM051100 35015G25KT 5SM FZRA BR OVC009=



000
FTUS44 KHUN 041131
TAFMSL
TAF
KMSL 041131Z 0412/0512 21010KT P6SM VCSH SCT009 BKN020
     FM041700 27012G18KT P6SM VCSH OVC015
     FM041900 30015G20KT P6SM VCSH OVC009
      TEMPO 0419/0421 3SM -TSRA BR OVC011CB
     FM042200 36015G25KT 5SM RA BR OVC009
     FM050900 35015G25KT 5SM FZRA BR OVC009=



000
FTUS44 KHUN 041131
TAFMSL
TAF
KMSL 041131Z 0412/0512 21010KT P6SM VCSH SCT009 BKN020
     FM041700 27012G18KT P6SM VCSH OVC015
     FM041900 30015G20KT P6SM VCSH OVC009
      TEMPO 0419/0421 3SM -TSRA BR OVC011CB
     FM042200 36015G25KT 5SM RA BR OVC009
     FM050900 35015G25KT 5SM FZRA BR OVC009=



000
FTUS44 KHUN 041131
TAFMSL
TAF
KMSL 041131Z 0412/0512 21010KT P6SM VCSH SCT009 BKN020
     FM041700 27012G18KT P6SM VCSH OVC015
     FM041900 30015G20KT P6SM VCSH OVC009
      TEMPO 0419/0421 3SM -TSRA BR OVC011CB
     FM042200 36015G25KT 5SM RA BR OVC009
     FM050900 35015G25KT 5SM FZRA BR OVC009=



000
FTUS44 KHUN 041131
TAFMSL
TAF
KMSL 041131Z 0412/0512 21010KT P6SM VCSH SCT009 BKN020
     FM041700 27012G18KT P6SM VCSH OVC015
     FM041900 30015G20KT P6SM VCSH OVC009
      TEMPO 0419/0421 3SM -TSRA BR OVC011CB
     FM042200 36015G25KT 5SM RA BR OVC009
     FM050900 35015G25KT 5SM FZRA BR OVC009=



000
FTUS44 KHUN 041131
TAFHSV
TAF
KHSV 041131Z 0412/0512 20010KT P6SM VCSH SCT009 BKN015
     FM041800 22012G18KT P6SM VCSH OVC015
     FM042100 27015G20KT P6SM VCSH OVC009
      TEMPO 0421/0423 3SM -TSRA BR OVC011CB
     FM050000 33012G23KT 5SM RA BR OVC009
     FM051100 35015G25KT 5SM FZRA BR OVC009=



000
FTUS44 KHUN 041131
TAFHSV
TAF
KHSV 041131Z 0412/0512 20010KT P6SM VCSH SCT009 BKN015
     FM041800 22012G18KT P6SM VCSH OVC015
     FM042100 27015G20KT P6SM VCSH OVC009
      TEMPO 0421/0423 3SM -TSRA BR OVC011CB
     FM050000 33012G23KT 5SM RA BR OVC009
     FM051100 35015G25KT 5SM FZRA BR OVC009=



000
FTUS44 KHUN 041131
TAFHSV
TAF
KHSV 041131Z 0412/0512 20010KT P6SM VCSH SCT009 BKN015
     FM041800 22012G18KT P6SM VCSH OVC015
     FM042100 27015G20KT P6SM VCSH OVC009
      TEMPO 0421/0423 3SM -TSRA BR OVC011CB
     FM050000 33012G23KT 5SM RA BR OVC009
     FM051100 35015G25KT 5SM FZRA BR OVC009=



000
FTUS44 KHUN 040520
TAFMSL
TAF
KMSL 040520Z 0406/0506 20015KT P6SM VCSH BKN015
     FM041100 21015KT P6SM VCSH OVC009
     FM041700 27015G25KT P6SM VCSH OVC015
     FM042000 30015G25KT P6SM VCSH OVC015
      TEMPO 0420/0423 5SM -TSRA BR OVC015CB
     FM042300 36015G25KT 5SM RA BR OVC009=



000
FTUS44 KHUN 040520
TAFHSV
TAF
KHSV 040520Z 0406/0506 19013KT P6SM VCSH BKN015
     FM041200 20015KT P6SM VCSH OVC009
     FM041800 23015G25KT P6SM VCSH OVC015
     FM042100 27015G25KT P6SM VCSH OVC015
      TEMPO 0421/0424 5SM -TSRA BR OVC015CB
     FM050000 34015G25KT 5SM RA BR OVC009=



000
FTUS44 KHUN 040520
TAFMSL
TAF
KMSL 040520Z 0406/0506 20015KT P6SM VCSH BKN015
     FM041100 21015KT P6SM VCSH OVC009
     FM041700 27015G25KT P6SM VCSH OVC015
     FM042000 30015G25KT P6SM VCSH OVC015
      TEMPO 0420/0423 5SM -TSRA BR OVC015CB
     FM042300 36015G25KT 5SM RA BR OVC009=



000
FTUS44 KHUN 040520
TAFMSL
TAF
KMSL 040520Z 0406/0506 20015KT P6SM VCSH BKN015
     FM041100 21015KT P6SM VCSH OVC009
     FM041700 27015G25KT P6SM VCSH OVC015
     FM042000 30015G25KT P6SM VCSH OVC015
      TEMPO 0420/0423 5SM -TSRA BR OVC015CB
     FM042300 36015G25KT 5SM RA BR OVC009=



000
FTUS44 KHUN 040520
TAFHSV
TAF
KHSV 040520Z 0406/0506 19013KT P6SM VCSH BKN015
     FM041200 20015KT P6SM VCSH OVC009
     FM041800 23015G25KT P6SM VCSH OVC015
     FM042100 27015G25KT P6SM VCSH OVC015
      TEMPO 0421/0424 5SM -TSRA BR OVC015CB
     FM050000 34015G25KT 5SM RA BR OVC009=



000
FTUS44 KHUN 040520
TAFHSV
TAF
KHSV 040520Z 0406/0506 19013KT P6SM VCSH BKN015
     FM041200 20015KT P6SM VCSH OVC009
     FM041800 23015G25KT P6SM VCSH OVC015
     FM042100 27015G25KT P6SM VCSH OVC015
      TEMPO 0421/0424 5SM -TSRA BR OVC015CB
     FM050000 34015G25KT 5SM RA BR OVC009=



000
FTUS44 KHUN 040520
TAFMSL
TAF
KMSL 040520Z 0406/0506 20015KT P6SM VCSH BKN015
     FM041100 21015KT P6SM VCSH OVC009
     FM041700 27015G25KT P6SM VCSH OVC015
     FM042000 30015G25KT P6SM VCSH OVC015
      TEMPO 0420/0423 5SM -TSRA BR OVC015CB
     FM042300 36015G25KT 5SM RA BR OVC009=



000
FTUS44 KHUN 040520
TAFHSV
TAF
KHSV 040520Z 0406/0506 19013KT P6SM VCSH BKN015
     FM041200 20015KT P6SM VCSH OVC009
     FM041800 23015G25KT P6SM VCSH OVC015
     FM042100 27015G25KT P6SM VCSH OVC015
      TEMPO 0421/0424 5SM -TSRA BR OVC015CB
     FM050000 34015G25KT 5SM RA BR OVC009=



000
FTUS44 KHUN 040243 AAA
TAFHSV
TAF AMD
KHSV 040243Z 0403/0424 17010KT 3SM -RA BR SCT009 BKN050
      TEMPO 0403/0406 6SM -RA BR
     FM040600 19010KT 2SM -RA BR OVC005
     FM041600 23015KT 3SM -RA BR OVC009
     FM042100 28015KT 5SM RA BR OVC009=



000
FTUS44 KHUN 040243 AAA
TAFHSV
TAF AMD
KHSV 040243Z 0403/0424 17010KT 3SM -RA BR SCT009 BKN050
      TEMPO 0403/0406 6SM -RA BR
     FM040600 19010KT 2SM -RA BR OVC005
     FM041600 23015KT 3SM -RA BR OVC009
     FM042100 28015KT 5SM RA BR OVC009=



000
FTUS44 KHUN 040243 AAA
TAFHSV
TAF AMD
KHSV 040243Z 0403/0424 17010KT 3SM -RA BR SCT009 BKN050
      TEMPO 0403/0406 6SM -RA BR
     FM040600 19010KT 2SM -RA BR OVC005
     FM041600 23015KT 3SM -RA BR OVC009
     FM042100 28015KT 5SM RA BR OVC009=



000
FTUS44 KHUN 040243 AAA
TAFHSV
TAF AMD
KHSV 040243Z 0403/0424 17010KT 3SM -RA BR SCT009 BKN050
      TEMPO 0403/0406 6SM -RA BR
     FM040600 19010KT 2SM -RA BR OVC005
     FM041600 23015KT 3SM -RA BR OVC009
     FM042100 28015KT 5SM RA BR OVC009=



000
FTUS44 KHUN 040239 AAA
TAFMSL
TAF AMD
KMSL 040239Z 0403/0424 19010KT 6SM -RA BR SCT007 BKN050
     FM040600 21010KT 2SM -RA BR OVC007
     FM041500 23015KT 3SM -RA BR OVC009
     FM042000 28015KT 5SM RA BR OVC009=



000
FTUS44 KHUN 040239 AAA
TAFMSL
TAF AMD
KMSL 040239Z 0403/0424 19010KT 6SM -RA BR SCT007 BKN050
     FM040600 21010KT 2SM -RA BR OVC007
     FM041500 23015KT 3SM -RA BR OVC009
     FM042000 28015KT 5SM RA BR OVC009=



000
FTUS44 KHUN 040239 AAA
TAFMSL
TAF AMD
KMSL 040239Z 0403/0424 19010KT 6SM -RA BR SCT007 BKN050
     FM040600 21010KT 2SM -RA BR OVC007
     FM041500 23015KT 3SM -RA BR OVC009
     FM042000 28015KT 5SM RA BR OVC009=



000
FTUS44 KHUN 040239 AAA
TAFMSL
TAF AMD
KMSL 040239Z 0403/0424 19010KT 6SM -RA BR SCT007 BKN050
     FM040600 21010KT 2SM -RA BR OVC007
     FM041500 23015KT 3SM -RA BR OVC009
     FM042000 28015KT 5SM RA BR OVC009=



000
FTUS44 KHUN 032359 CCA
TAFHSV
TAF COR
KHSV 032359Z 0400/0424 17010KT 6SM -RA BR OVC004
     FM040600 19010KT 2SM -RA BR OVC005
     FM041600 23015KT 3SM -RA BR OVC009
     FM042100 28015KT 5SM RA BR OVC009=



000
FTUS44 KHUN 032359 CCA
TAFHSV
TAF COR
KHSV 032359Z 0400/0424 17010KT 6SM -RA BR OVC004
     FM040600 19010KT 2SM -RA BR OVC005
     FM041600 23015KT 3SM -RA BR OVC009
     FM042100 28015KT 5SM RA BR OVC009=



000
FTUS44 KHUN 032359 CCA
TAFHSV
TAF COR
KHSV 032359Z 0400/0424 17010KT 6SM -RA BR OVC004
     FM040600 19010KT 2SM -RA BR OVC005
     FM041600 23015KT 3SM -RA BR OVC009
     FM042100 28015KT 5SM RA BR OVC009=



000
FTUS44 KHUN 032359 CCA
TAFHSV
TAF COR
KHSV 032359Z 0400/0424 17010KT 6SM -RA BR OVC004
     FM040600 19010KT 2SM -RA BR OVC005
     FM041600 23015KT 3SM -RA BR OVC009
     FM042100 28015KT 5SM RA BR OVC009=



000
FTUS44 KHUN 032340
TAFMSL
TAF
KMSL 032340Z 0400/0424 19010KT 5SM -RA BR OVC007
     FM040600 21010KT 2SM -RA BR OVC005
     FM041500 23015KT 3SM -RA BR OVC009
     FM042000 28015KT 5SM RA BR OVC009=



000
FTUS44 KHUN 032340
TAFHSV
TAF
KHSV 032340Z 0400/0424 17010KT 3SM -RA BR OVC004
     FM040600 19010KT 2SM -RA BR OVC005
     FM041600 23015KT 3SM -RA BR OVC009
     FM042100 28015KT 5SM RA BR OVC009=



000
FTUS44 KHUN 032340
TAFHSV
TAF
KHSV 032340Z 0400/0424 17010KT 3SM -RA BR OVC004
     FM040600 19010KT 2SM -RA BR OVC005
     FM041600 23015KT 3SM -RA BR OVC009
     FM042100 28015KT 5SM RA BR OVC009=



000
FTUS44 KHUN 032340
TAFHSV
TAF
KHSV 032340Z 0400/0424 17010KT 3SM -RA BR OVC004
     FM040600 19010KT 2SM -RA BR OVC005
     FM041600 23015KT 3SM -RA BR OVC009
     FM042100 28015KT 5SM RA BR OVC009=



000
FTUS44 KHUN 032340
TAFMSL
TAF
KMSL 032340Z 0400/0424 19010KT 5SM -RA BR OVC007
     FM040600 21010KT 2SM -RA BR OVC005
     FM041500 23015KT 3SM -RA BR OVC009
     FM042000 28015KT 5SM RA BR OVC009=



000
FTUS44 KHUN 032340
TAFMSL
TAF
KMSL 032340Z 0400/0424 19010KT 5SM -RA BR OVC007
     FM040600 21010KT 2SM -RA BR OVC005
     FM041500 23015KT 3SM -RA BR OVC009
     FM042000 28015KT 5SM RA BR OVC009=



000
FTUS44 KHUN 032340
TAFHSV
TAF
KHSV 032340Z 0400/0424 17010KT 3SM -RA BR OVC004
     FM040600 19010KT 2SM -RA BR OVC005
     FM041600 23015KT 3SM -RA BR OVC009
     FM042100 28015KT 5SM RA BR OVC009=



000
FTUS44 KHUN 031720
TAFHSV
TAF
KHSV 031720Z 0318/0418 16007KT P6SM VCSH OVC004
     FM040200 20011KT 5SM BR VCSH BKN006 OVC015
      TEMPO 0402/0406 3SM SHRA BR
     FM040800 20013KT 5SM BR VCSH OVC009=



000
FTUS44 KHUN 031720
TAFMSL
TAF
KMSL 031720Z 0318/0418 16007KT P6SM VCSH BKN006 OVC015
     FM040200 20013KT 5SM BR VCSH BKN006 OVC015
      TEMPO 0402/0406 2SM SHRA BR
     FM040800 20013KT 5SM BR VCSH OVC006
     FM041700 33009KT 4SM -RA BR OVC008=



000
FTUS44 KHUN 031720
TAFMSL
TAF
KMSL 031720Z 0318/0418 16007KT P6SM VCSH BKN006 OVC015
     FM040200 20013KT 5SM BR VCSH BKN006 OVC015
      TEMPO 0402/0406 2SM SHRA BR
     FM040800 20013KT 5SM BR VCSH OVC006
     FM041700 33009KT 4SM -RA BR OVC008=



000
FTUS44 KHUN 031720
TAFHSV
TAF
KHSV 031720Z 0318/0418 16007KT P6SM VCSH OVC004
     FM040200 20011KT 5SM BR VCSH BKN006 OVC015
      TEMPO 0402/0406 3SM SHRA BR
     FM040800 20013KT 5SM BR VCSH OVC009=



000
FTUS44 KHUN 031720
TAFMSL
TAF
KMSL 031720Z 0318/0418 16007KT P6SM VCSH BKN006 OVC015
     FM040200 20013KT 5SM BR VCSH BKN006 OVC015
      TEMPO 0402/0406 2SM SHRA BR
     FM040800 20013KT 5SM BR VCSH OVC006
     FM041700 33009KT 4SM -RA BR OVC008=



000
FTUS44 KHUN 031720
TAFHSV
TAF
KHSV 031720Z 0318/0418 16007KT P6SM VCSH OVC004
     FM040200 20011KT 5SM BR VCSH BKN006 OVC015
      TEMPO 0402/0406 3SM SHRA BR
     FM040800 20013KT 5SM BR VCSH OVC009=



000
FTUS44 KHUN 031720
TAFMSL
TAF
KMSL 031720Z 0318/0418 16007KT P6SM VCSH BKN006 OVC015
     FM040200 20013KT 5SM BR VCSH BKN006 OVC015
      TEMPO 0402/0406 2SM SHRA BR
     FM040800 20013KT 5SM BR VCSH OVC006
     FM041700 33009KT 4SM -RA BR OVC008=



000
FTUS44 KHUN 031720
TAFHSV
TAF
KHSV 031720Z 0318/0418 16007KT P6SM VCSH OVC004
     FM040200 20011KT 5SM BR VCSH BKN006 OVC015
      TEMPO 0402/0406 3SM SHRA BR
     FM040800 20013KT 5SM BR VCSH OVC009=



000
FTUS44 KHUN 031141
TAFHSV
TAF
KHSV 031141Z 0312/0412 12005KT 4SM -DZ BR OVC006
     FM031700 16007KT P6SM VCSH BKN008 OVC015
     FM040200 20013KT P6SM VCSH BKN008 OVC015
      TEMPO 0402/0406 4SM SHRA BR
     FM040800 20013KT 5SM BR OVC006=



000
FTUS44 KHUN 031141
TAFMSL
TAF
KMSL 031141Z 0312/0412 12005KT 4SM -DZ BR OVC006
     FM031700 16007KT P6SM VCSH BKN008 OVC015
     FM040200 20013KT P6SM VCSH BKN008 OVC015
      TEMPO 0402/0406 4SM SHRA BR
     FM040800 20013KT 5SM BR OVC006=



000
FTUS44 KHUN 031141
TAFMSL
TAF
KMSL 031141Z 0312/0412 12005KT 4SM -DZ BR OVC006
     FM031700 16007KT P6SM VCSH BKN008 OVC015
     FM040200 20013KT P6SM VCSH BKN008 OVC015
      TEMPO 0402/0406 4SM SHRA BR
     FM040800 20013KT 5SM BR OVC006=



000
FTUS44 KHUN 031141
TAFHSV
TAF
KHSV 031141Z 0312/0412 12005KT 4SM -DZ BR OVC006
     FM031700 16007KT P6SM VCSH BKN008 OVC015
     FM040200 20013KT P6SM VCSH BKN008 OVC015
      TEMPO 0402/0406 4SM SHRA BR
     FM040800 20013KT 5SM BR OVC006=



000
FTUS44 KHUN 031141
TAFMSL
TAF
KMSL 031141Z 0312/0412 12005KT 4SM -DZ BR OVC006
     FM031700 16007KT P6SM VCSH BKN008 OVC015
     FM040200 20013KT P6SM VCSH BKN008 OVC015
      TEMPO 0402/0406 4SM SHRA BR
     FM040800 20013KT 5SM BR OVC006=



000
FTUS44 KHUN 031141
TAFHSV
TAF
KHSV 031141Z 0312/0412 12005KT 4SM -DZ BR OVC006
     FM031700 16007KT P6SM VCSH BKN008 OVC015
     FM040200 20013KT P6SM VCSH BKN008 OVC015
      TEMPO 0402/0406 4SM SHRA BR
     FM040800 20013KT 5SM BR OVC006=



000
FTUS44 KHUN 030520
TAFMSL
TAF
KMSL 030520Z 0306/0406 05005KT P6SM OVC015
     FM030900 14005KT P6SM VCSH OVC015
     FM031200 15005KT 5SM -RA BR OVC009
     FM031800 18010KT 5SM -SHRA BR OVC015
      TEMPO 0321/0401 5SM -TSRA BR BKN009CB
     FM040100 20010KT 5SM -SHRA BR OVC015=



000
FTUS44 KHUN 030520
TAFHSV
TAF
KHSV 030520Z 0306/0406 05005KT P6SM OVC015
     FM030900 12005KT P6SM VCSH OVC015
     FM031200 14005KT 5SM -RA BR OVC009
     FM031800 18010KT 5SM -SHRA BR OVC015
      TEMPO 0322/0402 5SM -TSRA BR BKN009CB
     FM040200 19010KT 5SM -SHRA BR OVC015=



000
FTUS44 KHUN 022332
TAFHSV
TAF
KHSV 022332Z 0300/0324 07005KT P6SM VCSH OVC025
     FM030600 10005KT 5SM BR OVC020
     FM031200 13010KT 3SM -RA BR OVC009
     FM031800 18010KT 5SM -SHRA BR OVC015
      TEMPO 0320/0324 5SM -TSRA BR BKN009CB=



000
FTUS44 KHUN 022332
TAFMSL
TAF
KMSL 022332Z 0300/0324 08005KT P6SM VCSH OVC025
     FM030500 10005KT 5SM BR OVC020
     FM031100 15005KT 3SM -RA BR OVC009
     FM031800 18010KT 5SM -SHRA BR OVC015
      TEMPO 0320/0324 5SM -TSRA BR BKN009CB=



000
FTUS44 KHUN 022332
TAFMSL
TAF
KMSL 022332Z 0300/0324 08005KT P6SM VCSH OVC025
     FM030500 10005KT 5SM BR OVC020
     FM031100 15005KT 3SM -RA BR OVC009
     FM031800 18010KT 5SM -SHRA BR OVC015
      TEMPO 0320/0324 5SM -TSRA BR BKN009CB=



000
FTUS44 KHUN 022332
TAFHSV
TAF
KHSV 022332Z 0300/0324 07005KT P6SM VCSH OVC025
     FM030600 10005KT 5SM BR OVC020
     FM031200 13010KT 3SM -RA BR OVC009
     FM031800 18010KT 5SM -SHRA BR OVC015
      TEMPO 0320/0324 5SM -TSRA BR BKN009CB=



000
FTUS44 KHUN 021724
TAFMSL
TAF
KMSL 021724Z 0218/0318 04008KT P6SM BKN015 OVC025
     FM022100 06006KT P6SM VCSH BKN015 OVC025
     FM030300 12006KT P6SM VCSH BKN008 OVC015
     FM030800 16008KT 4SM BR VCSH BKN008 OVC015
     FM031400 17006KT 4SM -RA BR BKN007 OVC015=



000
FTUS44 KHUN 021724
TAFHSV
TAF
KHSV 021724Z 0218/0318 04008KT P6SM BKN011 OVC025
     FM022100 06006KT P6SM VCSH BKN015 OVC025
     FM030300 12006KT P6SM VCSH BKN008 OVC015
     FM030800 16008KT 4SM BR VCSH BKN008 OVC015
     FM031400 14007KT 4SM -RA BR BKN007 OVC015=



000
FTUS44 KHUN 021724
TAFMSL
TAF
KMSL 021724Z 0218/0318 04008KT P6SM BKN015 OVC025
     FM022100 06006KT P6SM VCSH BKN015 OVC025
     FM030300 12006KT P6SM VCSH BKN008 OVC015
     FM030800 16008KT 4SM BR VCSH BKN008 OVC015
     FM031400 17006KT 4SM -RA BR BKN007 OVC015=



000
FTUS44 KHUN 021724
TAFHSV
TAF
KHSV 021724Z 0218/0318 04008KT P6SM BKN011 OVC025
     FM022100 06006KT P6SM VCSH BKN015 OVC025
     FM030300 12006KT P6SM VCSH BKN008 OVC015
     FM030800 16008KT 4SM BR VCSH BKN008 OVC015
     FM031400 14007KT 4SM -RA BR BKN007 OVC015=



000
FTUS44 KHUN 021724
TAFMSL
TAF
KMSL 021724Z 0218/0318 04008KT P6SM BKN015 OVC025
     FM022100 06006KT P6SM VCSH BKN015 OVC025
     FM030300 12006KT P6SM VCSH BKN008 OVC015
     FM030800 16008KT 4SM BR VCSH BKN008 OVC015
     FM031400 17006KT 4SM -RA BR BKN007 OVC015=



000
FTUS44 KHUN 021724
TAFHSV
TAF
KHSV 021724Z 0218/0318 04008KT P6SM BKN011 OVC025
     FM022100 06006KT P6SM VCSH BKN015 OVC025
     FM030300 12006KT P6SM VCSH BKN008 OVC015
     FM030800 16008KT 4SM BR VCSH BKN008 OVC015
     FM031400 14007KT 4SM -RA BR BKN007 OVC015=



000
FTUS44 KHUN 021724
TAFMSL
TAF
KMSL 021724Z 0218/0318 04008KT P6SM BKN015 OVC025
     FM022100 06006KT P6SM VCSH BKN015 OVC025
     FM030300 12006KT P6SM VCSH BKN008 OVC015
     FM030800 16008KT 4SM BR VCSH BKN008 OVC015
     FM031400 17006KT 4SM -RA BR BKN007 OVC015=



000
FTUS44 KHUN 021724
TAFHSV
TAF
KHSV 021724Z 0218/0318 04008KT P6SM BKN011 OVC025
     FM022100 06006KT P6SM VCSH BKN015 OVC025
     FM030300 12006KT P6SM VCSH BKN008 OVC015
     FM030800 16008KT 4SM BR VCSH BKN008 OVC015
     FM031400 14007KT 4SM -RA BR BKN007 OVC015=



000
FTUS44 KHUN 021140
TAFHSV
TAF
KHSV 021140Z 0212/0312 02010G18KT 4SM -DZ BR BKN008 OVC015
     FM021500 04008KT P6SM BKN015 OVC025
     FM022100 06006KT P6SM VCSH BKN015 OVC025
     FM030300 12006KT P6SM VCSH BKN008 OVC015
     FM030800 16008KT 4SM BR VCSH BKN008 OVC015=



000
FTUS44 KHUN 021140
TAFMSL
TAF
KMSL 021140Z 0212/0312 02010G18KT 4SM -DZ BR BKN008 OVC015
     FM021500 04008KT P6SM BKN015 OVC025
     FM022100 06006KT P6SM VCSH BKN015 OVC025
     FM030300 12006KT P6SM VCSH BKN008 OVC015
     FM030800 16008KT 4SM BR VCSH BKN008 OVC015=



000
FTUS44 KHUN 021140
TAFHSV
TAF
KHSV 021140Z 0212/0312 02010G18KT 4SM -DZ BR BKN008 OVC015
     FM021500 04008KT P6SM BKN015 OVC025
     FM022100 06006KT P6SM VCSH BKN015 OVC025
     FM030300 12006KT P6SM VCSH BKN008 OVC015
     FM030800 16008KT 4SM BR VCSH BKN008 OVC015=



000
FTUS44 KHUN 021140
TAFMSL
TAF
KMSL 021140Z 0212/0312 02010G18KT 4SM -DZ BR BKN008 OVC015
     FM021500 04008KT P6SM BKN015 OVC025
     FM022100 06006KT P6SM VCSH BKN015 OVC025
     FM030300 12006KT P6SM VCSH BKN008 OVC015
     FM030800 16008KT 4SM BR VCSH BKN008 OVC015=



000
FTUS44 KHUN 021140
TAFHSV
TAF
KHSV 021140Z 0212/0312 02010G18KT 4SM -DZ BR BKN008 OVC015
     FM021500 04008KT P6SM BKN015 OVC025
     FM022100 06006KT P6SM VCSH BKN015 OVC025
     FM030300 12006KT P6SM VCSH BKN008 OVC015
     FM030800 16008KT 4SM BR VCSH BKN008 OVC015=



000
FTUS44 KHUN 021140
TAFMSL
TAF
KMSL 021140Z 0212/0312 02010G18KT 4SM -DZ BR BKN008 OVC015
     FM021500 04008KT P6SM BKN015 OVC025
     FM022100 06006KT P6SM VCSH BKN015 OVC025
     FM030300 12006KT P6SM VCSH BKN008 OVC015
     FM030800 16008KT 4SM BR VCSH BKN008 OVC015=



000
FTUS44 KHUN 021140
TAFHSV
TAF
KHSV 021140Z 0212/0312 02010G18KT 4SM -DZ BR BKN008 OVC015
     FM021500 04008KT P6SM BKN015 OVC025
     FM022100 06006KT P6SM VCSH BKN015 OVC025
     FM030300 12006KT P6SM VCSH BKN008 OVC015
     FM030800 16008KT 4SM BR VCSH BKN008 OVC015=



000
FTUS44 KHUN 021140
TAFMSL
TAF
KMSL 021140Z 0212/0312 02010G18KT 4SM -DZ BR BKN008 OVC015
     FM021500 04008KT P6SM BKN015 OVC025
     FM022100 06006KT P6SM VCSH BKN015 OVC025
     FM030300 12006KT P6SM VCSH BKN008 OVC015
     FM030800 16008KT 4SM BR VCSH BKN008 OVC015=



000
FTUS44 KHUN 020520
TAFMSL
TAF
KMSL 020520Z 0206/0306 00000KT 2SM -RADZ BR VV009
     FM020800 35010KT 4SM -RA BR OVC005
     FM021400 03007KT 5SM -DZ BR BKN007 OVC018
     FM021700 06006KT 5SM BR BKN022 OVC035
     FM030100 09003KT 3SM BR OVC018=



000
FTUS44 KHUN 020520
TAFMSL
TAF
KMSL 020520Z 0206/0306 00000KT 2SM -RADZ BR VV009
     FM020800 35010KT 4SM -RA BR OVC005
     FM021400 03007KT 5SM -DZ BR BKN007 OVC018
     FM021700 06006KT 5SM BR BKN022 OVC035
     FM030100 09003KT 3SM BR OVC018=



000
FTUS44 KHUN 020520
TAFMSL
TAF
KMSL 020520Z 0206/0306 00000KT 2SM -RADZ BR VV009
     FM020800 35010KT 4SM -RA BR OVC005
     FM021400 03007KT 5SM -DZ BR BKN007 OVC018
     FM021700 06006KT 5SM BR BKN022 OVC035
     FM030100 09003KT 3SM BR OVC018=



000
FTUS44 KHUN 020520
TAFHSV
TAF
KHSV 020520Z 0206/0306 VRB04KT 2SM SHRA BR SCT014 OVC021
     FM021000 36010KT 3SM -RADZ BR OVC007
     FM021400 01008KT 5SM -DZ BR BKN007 OVC018
     FM021700 03006KT 5SM BR BKN022 OVC035
     FM030100 08003KT 3SM BR OVC018=



000
FTUS44 KHUN 020520
TAFHSV
TAF
KHSV 020520Z 0206/0306 VRB04KT 2SM SHRA BR SCT014 OVC021
     FM021000 36010KT 3SM -RADZ BR OVC007
     FM021400 01008KT 5SM -DZ BR BKN007 OVC018
     FM021700 03006KT 5SM BR BKN022 OVC035
     FM030100 08003KT 3SM BR OVC018=



000
FTUS44 KHUN 020520
TAFHSV
TAF
KHSV 020520Z 0206/0306 VRB04KT 2SM SHRA BR SCT014 OVC021
     FM021000 36010KT 3SM -RADZ BR OVC007
     FM021400 01008KT 5SM -DZ BR BKN007 OVC018
     FM021700 03006KT 5SM BR BKN022 OVC035
     FM030100 08003KT 3SM BR OVC018=



000
FTUS44 KHUN 020520
TAFMSL
TAF
KMSL 020520Z 0206/0306 00000KT 2SM -RADZ BR VV009
     FM020800 35010KT 4SM -RA BR OVC005
     FM021400 03007KT 5SM -DZ BR BKN007 OVC018
     FM021700 06006KT 5SM BR BKN022 OVC035
     FM030100 09003KT 3SM BR OVC018=



000
FTUS44 KHUN 012351 AAA
TAFHSV
TAF AMD
KHSV 012351Z 0200/0224 10005KT 3SM -RA BR OVC007
     FM020400 VRB03KT 5SM -RA BR OVC005
     FM021000 35006KT 3SM -RA BR OVC005
     FM021400 03008KT 5SM -DZ BR BKN007 OVC018=



000
FTUS44 KHUN 012351 AAA
TAFHSV
TAF AMD
KHSV 012351Z 0200/0224 10005KT 3SM -RA BR OVC007
     FM020400 VRB03KT 5SM -RA BR OVC005
     FM021000 35006KT 3SM -RA BR OVC005
     FM021400 03008KT 5SM -DZ BR BKN007 OVC018=



000
FTUS44 KHUN 012351 AAA
TAFHSV
TAF AMD
KHSV 012351Z 0200/0224 10005KT 3SM -RA BR OVC007
     FM020400 VRB03KT 5SM -RA BR OVC005
     FM021000 35006KT 3SM -RA BR OVC005
     FM021400 03008KT 5SM -DZ BR BKN007 OVC018=



000
FTUS44 KHUN 012320
TAFHSV
TAF
KHSV 012320Z 0200/0224 14006KT 5SM -RA OVC010
     FM020400 VRB03KT 5SM -RA BR OVC005
     FM020800 35006KT 3SM -RA BR OVC005
     FM021400 03008KT 5SM -DZ BR BKN007 OVC018=



000
FTUS44 KHUN 012320
TAFHSV
TAF
KHSV 012320Z 0200/0224 14006KT 5SM -RA OVC010
     FM020400 VRB03KT 5SM -RA BR OVC005
     FM021000 35006KT 3SM -RA BR OVC005
     FM021400 03008KT 5SM -DZ BR BKN007 OVC018=



000
FTUS44 KHUN 012320
TAFHSV
TAF
KHSV 012320Z 0200/0224 14006KT 5SM -RA OVC010
     FM020400 VRB03KT 5SM -RA BR OVC005
     FM021000 35006KT 3SM -RA BR OVC005
     FM021400 03008KT 5SM -DZ BR BKN007 OVC018=



000
FTUS44 KHUN 012320
TAFHSV
TAF
KHSV 012320Z 0200/0224 14006KT 5SM -RA OVC010
     FM020400 VRB03KT 5SM -RA BR OVC005
     FM020800 35006KT 3SM -RA BR OVC005
     FM021400 03008KT 5SM -DZ BR BKN007 OVC018=



000
FTUS44 KHUN 012320
TAFHSV
TAF
KHSV 012320Z 0200/0224 14006KT 5SM -RA OVC010
     FM020400 VRB03KT 5SM -RA BR OVC005
     FM021000 35006KT 3SM -RA BR OVC005
     FM021400 03008KT 5SM -DZ BR BKN007 OVC018=



000
FTUS44 KHUN 012320
TAFHSV
TAF
KHSV 012320Z 0200/0224 14006KT 5SM -RA OVC010
     FM020400 VRB03KT 5SM -RA BR OVC005
     FM020800 35006KT 3SM -RA BR OVC005
     FM021400 03008KT 5SM -DZ BR BKN007 OVC018=



000
FTUS44 KHUN 012320
TAFMSL
TAF
KMSL 012320Z 0200/0224 15004KT 5SM -RA BR OVC009
     FM020200 VRB03KT 3SM -RA BR OVC005
     FM020800 03007KT 4SM -RA BR OVC005
     FM021400 05007KT 5SM -DZ BR BKN007 OVC018=



000
FTUS44 KHUN 012320
TAFMSL
TAF
KMSL 012320Z 0200/0224 15004KT 5SM -RA BR OVC009
     FM020200 VRB03KT 3SM -RA BR OVC005
     FM020800 03007KT 4SM -RA BR OVC005
     FM021400 05007KT 5SM -DZ BR BKN007 OVC018=



000
FTUS44 KHUN 012320
TAFHSV
TAF
KHSV 012320Z 0200/0224 14006KT 5SM -RA OVC010
     FM020400 VRB03KT 5SM -RA BR OVC005
     FM021000 35006KT 3SM -RA BR OVC005
     FM021400 03008KT 5SM -DZ BR BKN007 OVC018=



000
FTUS44 KHUN 012320
TAFHSV
TAF
KHSV 012320Z 0200/0224 14006KT 5SM -RA OVC010
     FM020400 VRB03KT 5SM -RA BR OVC005
     FM020800 35006KT 3SM -RA BR OVC005
     FM021400 03008KT 5SM -DZ BR BKN007 OVC018=



000
FTUS44 KHUN 012320
TAFMSL
TAF
KMSL 012320Z 0200/0224 15004KT 5SM -RA BR OVC009
     FM020200 VRB03KT 3SM -RA BR OVC005
     FM020800 03007KT 4SM -RA BR OVC005
     FM021400 05007KT 5SM -DZ BR BKN007 OVC018=



    US Dept of Commerce
    National Oceanic and Atmospheric Administration
    National Weather Service
    1325 East West Highway
    Silver Spring, MD 20910
    Page Author: NWS Internet Services Team
Disclaimer
Information Quality
Credits
Glossary
Privacy Policy
Freedom of Information Act (FOIA)
About Us
Career Opportunities